createdAt,value
2023-04-12T00:00:46.561Z,10.85
2023-04-12T00:01:49.683Z,9.45
2023-04-12T00:02:54.363Z,10.05
2023-04-12T00:03:57.505Z,9.57
2023-04-12T00:05:02.669Z,10.68
2023-04-12T00:06:07.509Z,8.32
2023-04-12T00:07:10.416Z,9.70
2023-04-12T00:08:14.375Z,10.77
2023-04-12T00:09:17.188Z,12.05
2023-04-12T00:10:21.336Z,9.13
2023-04-12T00:11:23.912Z,9.82
2023-04-12T00:12:26.760Z,10.50
2023-04-12T00:13:30.082Z,9.27
2023-04-12T00:14:32.642Z,8.65
2023-04-12T00:15:35.239Z,8.88
2023-04-12T00:16:39.043Z,7.05
2023-04-12T00:17:41.882Z,10.20
2023-04-12T00:18:45.828Z,10.70
2023-04-12T00:19:50.185Z,9.27
2023-04-12T00:20:53.210Z,11.77
2023-04-12T00:21:56.661Z,12.65
2023-04-12T00:22:59.089Z,9.68
2023-04-12T00:24:01.790Z,12.18
2023-04-12T00:25:04.694Z,11.20
2023-04-12T00:26:07.365Z,13.40
2023-04-12T00:27:10.530Z,11.05
2023-04-12T00:28:13.014Z,11.32
2023-04-12T00:29:16.793Z,11.20
2023-04-12T00:30:19.372Z,10.20
2023-04-12T00:31:21.949Z,10.00
2023-04-12T00:32:24.525Z,12.60
2023-04-12T00:33:27.319Z,10.00
2023-04-12T00:34:30.330Z,12.65
2023-04-12T00:35:32.899Z,11.52
2023-04-12T00:36:35.702Z,11.73
2023-04-12T00:37:39.009Z,11.43
2023-04-12T00:38:42.462Z,11.10
2023-04-12T00:39:44.985Z,16.15
2023-04-12T00:40:47.556Z,12.00
2023-04-12T00:41:50.049Z,12.70
2023-04-12T00:42:52.572Z,14.60
2023-04-12T00:43:56.005Z,14.00
2023-04-12T00:44:58.866Z,14.80
2023-04-12T00:46:02.223Z,12.07
2023-04-12T00:47:05.496Z,13.38
2023-04-12T00:48:08.325Z,13.93
2023-04-12T00:49:12.468Z,13.48
2023-04-12T00:50:14.923Z,17.42
2023-04-12T00:51:18.487Z,18.88
2023-04-12T00:52:22.234Z,14.85
2023-04-12T00:53:24.738Z,18.90
2023-04-12T00:54:27.305Z,16.23
2023-04-12T00:55:29.978Z,17.23
2023-04-12T00:56:33.212Z,15.77
2023-04-12T00:57:37.783Z,16.00
2023-04-12T00:58:40.503Z,16.27
2023-04-12T00:59:43.127Z,20.20
2023-04-12T01:00:50.447Z,15.85
2023-04-12T01:01:56.521Z,18.98
2023-04-12T01:03:02.549Z,16.25
2023-04-12T01:04:05.528Z,18.15
2023-04-12T01:05:08.537Z,15.23
2023-04-12T01:06:29.856Z,20.25
2023-04-12T01:07:37.816Z,14.77
2023-04-12T01:09:18.528Z,16.25
2023-04-12T01:10:26.946Z,13.68
2023-04-12T01:11:45.072Z,16.80
2023-04-12T01:12:56.294Z,13.95
2023-04-12T01:14:36.812Z,14.25
2023-04-12T01:15:44.070Z,17.75
2023-04-12T01:16:57.793Z,16.90
2023-04-12T01:18:19.870Z,16.50
2023-04-12T01:19:35.062Z,15.52
2023-04-12T01:21:17.343Z,13.25
2023-04-12T01:22:32.833Z,13.20
2023-04-12T01:24:04.145Z,13.20
2023-04-12T01:25:16.808Z,16.45
2023-04-12T01:26:34.382Z,17.48
2023-04-12T01:27:45.558Z,12.65
2023-04-12T01:28:52.686Z,13.75
2023-04-12T01:29:56.590Z,12.68
2023-04-12T01:31:03.086Z,16.25
2023-04-12T01:32:06.442Z,13.48
2023-04-12T01:33:11.752Z,17.13
2023-04-12T01:34:14.312Z,13.88
2023-04-12T01:35:18.454Z,13.15
2023-04-12T01:36:22.572Z,13.80
2023-04-12T01:37:25.396Z,15.00
2023-04-12T01:38:28.518Z,12.77
2023-04-12T01:39:32.616Z,13.60
2023-04-12T01:40:35.994Z,15.82
2023-04-12T01:41:48.895Z,13.68
2023-04-12T01:42:51.511Z,12.25
2023-04-12T01:43:54.063Z,14.73
2023-04-12T01:44:58.578Z,11.25
2023-04-12T01:46:01.144Z,14.88
2023-04-12T01:47:03.810Z,15.10
2023-04-12T01:48:11.080Z,12.18
2023-04-12T01:49:14.330Z,12.68
2023-04-12T01:50:28.177Z,16.17
2023-04-12T01:51:45.402Z,15.65
2023-04-12T01:53:04.961Z,14.13
2023-04-12T01:54:12.574Z,12.27
2023-04-12T01:55:15.524Z,11.27
2023-04-12T01:56:19.584Z,15.40
2023-04-12T01:57:22.444Z,12.70
2023-04-12T01:58:25.751Z,12.55
2023-04-12T01:59:35.089Z,16.33
2023-04-12T02:00:39.481Z,12.57
2023-04-12T02:01:43.467Z,12.68
2023-04-12T02:02:46.305Z,14.15
2023-04-12T02:03:50.219Z,12.05
2023-04-12T02:04:53.051Z,12.18
2023-04-12T02:05:59.095Z,13.77
2023-04-12T02:07:02.421Z,14.55
2023-04-12T02:08:05.378Z,18.90
2023-04-12T02:09:08.031Z,13.25
2023-04-12T02:10:16.477Z,11.57
2023-04-12T02:11:19.127Z,13.57
2023-04-12T02:12:23.039Z,16.08
2023-04-12T02:13:26.749Z,12.02
2023-04-12T02:14:31.551Z,13.75
2023-04-12T02:15:34.340Z,12.27
2023-04-12T02:16:36.923Z,12.30
2023-04-12T02:17:41.168Z,12.82
2023-04-12T02:18:44.692Z,16.60
2023-04-12T02:19:50.108Z,15.35
2023-04-12T02:20:54.426Z,12.82
2023-04-12T02:21:56.949Z,10.30
2023-04-12T02:23:00.599Z,11.45
2023-04-12T02:24:03.408Z,14.63
2023-04-12T02:25:09.123Z,12.23
2023-04-12T02:26:11.592Z,12.00
2023-04-12T02:27:14.292Z,15.48
2023-04-12T02:28:16.779Z,10.80
2023-04-12T02:29:19.329Z,12.43
2023-04-12T02:30:23.615Z,11.15
2023-04-12T02:31:30.627Z,13.50
2023-04-12T02:32:44.608Z,11.27
2023-04-12T02:33:52.761Z,10.85
2023-04-12T02:34:57.716Z,11.32
2023-04-12T02:36:02.639Z,10.80
2023-04-12T02:37:07.137Z,10.57
2023-04-12T02:38:09.589Z,12.13
2023-04-12T02:39:18.835Z,12.18
2023-04-12T02:40:23.432Z,12.20
2023-04-12T02:41:26.101Z,11.88
2023-04-12T02:42:28.938Z,10.05
2023-04-12T02:43:33.111Z,9.88
2023-04-12T02:44:39.339Z,11.38
2023-04-12T02:45:49.463Z,10.75
2023-04-12T02:46:52.130Z,12.38
2023-04-12T02:47:54.698Z,11.70
2023-04-12T02:49:01.668Z,11.35
2023-04-12T02:50:11.958Z,11.25
2023-04-12T02:51:31.627Z,10.80
2023-04-12T02:52:34.207Z,8.50
2023-04-12T02:53:42.119Z,12.07
2023-04-12T02:54:53.954Z,9.20
2023-04-12T02:55:57.389Z,9.38
2023-04-12T02:57:02.214Z,9.48
2023-04-12T02:58:11.154Z,9.52
2023-04-12T02:59:19.344Z,11.90
2023-04-12T03:00:43.901Z,8.88
2023-04-12T03:01:50.853Z,11.57
2023-04-12T03:03:03.201Z,10.18
2023-04-12T03:04:07.891Z,10.93
2023-04-12T03:05:21.163Z,9.80
2023-04-12T03:06:23.646Z,9.57
2023-04-12T03:07:28.034Z,11.00
2023-04-12T03:08:31.250Z,9.48
2023-04-12T03:09:34.854Z,12.40
2023-04-12T03:10:38.666Z,12.77
2023-04-12T03:11:41.918Z,12.15
2023-04-12T03:12:44.933Z,10.93
2023-04-12T03:13:55.462Z,10.73
2023-04-12T03:14:58.177Z,12.30
2023-04-12T03:16:21.801Z,11.45
2023-04-12T03:17:26.523Z,11.18
2023-04-12T03:18:31.228Z,14.00
2023-04-12T03:19:35.282Z,9.90
2023-04-12T03:20:39.292Z,9.45
2023-04-12T03:21:45.698Z,10.02
2023-04-12T03:22:48.360Z,10.25
2023-04-12T03:23:51.297Z,14.20
2023-04-12T03:24:55.291Z,9.95
2023-04-12T03:25:58.434Z,11.30
2023-04-12T03:27:09.083Z,10.35
2023-04-12T03:28:13.312Z,10.15
2023-04-12T03:29:26.864Z,11.70
2023-04-12T03:30:30.599Z,11.07
2023-04-12T03:31:34.058Z,11.02
2023-04-12T03:32:42.269Z,11.23
2023-04-12T03:33:46.218Z,11.50
2023-04-12T03:35:14.936Z,13.05
2023-04-12T03:36:18.386Z,11.35
2023-04-12T03:37:26.228Z,14.48
2023-04-12T03:38:32.217Z,10.77
2023-04-12T03:39:35.401Z,13.85
2023-04-12T03:40:37.922Z,11.25
2023-04-12T03:41:40.789Z,14.45
2023-04-12T03:42:43.836Z,12.80
2023-04-12T03:43:48.279Z,12.77
2023-04-12T03:44:54.004Z,14.23
2023-04-12T03:45:58.071Z,12.95
2023-04-12T03:47:01.577Z,11.57
2023-04-12T03:48:12.000Z,15.43
2023-04-12T03:49:18.712Z,11.05
2023-04-12T03:50:23.666Z,12.70
2023-04-12T03:51:31.519Z,16.65
2023-04-12T03:52:37.499Z,12.30
2023-04-12T03:53:42.413Z,10.88
2023-04-12T03:54:49.311Z,13.93
2023-04-12T03:56:03.588Z,16.17
2023-04-12T03:57:07.788Z,12.80
2023-04-12T03:58:18.915Z,13.75
2023-04-12T03:59:22.665Z,12.10
2023-04-12T04:00:26.197Z,12.23
2023-04-12T04:01:41.807Z,11.68
2023-04-12T04:02:47.774Z,11.88
2023-04-12T04:03:52.612Z,12.27
2023-04-12T04:04:59.872Z,12.07
2023-04-12T04:06:03.580Z,11.02
2023-04-12T04:07:07.961Z,11.65
2023-04-12T04:08:17.195Z,11.35
2023-04-12T04:09:26.620Z,11.95
2023-04-12T04:10:29.336Z,14.25
2023-04-12T04:11:32.889Z,13.32
2023-04-12T04:12:41.798Z,12.50
2023-04-12T04:13:47.166Z,12.02
2023-04-12T04:14:54.670Z,9.55
2023-04-12T04:16:07.511Z,12.90
2023-04-12T04:17:10.200Z,10.68
2023-04-12T04:18:12.628Z,12.73
2023-04-12T04:19:15.389Z,10.90
2023-04-12T04:20:20.591Z,10.25
2023-04-12T04:21:26.818Z,9.02
2023-04-12T04:22:32.737Z,11.10
2023-04-12T04:23:40.728Z,12.82
2023-04-12T04:24:44.698Z,11.77
2023-04-12T04:25:47.750Z,12.23
2023-04-12T04:26:50.442Z,10.95
2023-04-12T04:28:02.809Z,13.32
2023-04-12T04:29:06.683Z,12.80
2023-04-12T04:30:15.226Z,14.07
2023-04-12T04:31:22.315Z,13.25
2023-04-12T04:32:26.050Z,12.35
2023-04-12T04:33:33.471Z,12.82
2023-04-12T04:34:39.907Z,13.35
2023-04-12T04:35:46.343Z,13.10
2023-04-12T04:37:01.704Z,16.50
2023-04-12T04:38:04.301Z,13.55
2023-04-12T04:39:07.207Z,11.65
2023-04-12T04:40:21.045Z,12.70
2023-04-12T04:41:24.428Z,11.95
2023-04-12T04:42:32.716Z,13.65
2023-04-12T04:43:40.170Z,13.52
2023-04-12T04:44:42.737Z,13.73
2023-04-12T04:45:50.602Z,14.05
2023-04-12T04:46:53.597Z,11.68
2023-04-12T04:47:57.167Z,17.98
2023-04-12T04:49:00.200Z,12.30
2023-04-12T04:50:02.861Z,11.85
2023-04-12T04:51:05.558Z,12.00
2023-04-12T04:52:09.001Z,12.50
2023-04-12T04:53:11.908Z,11.32
2023-04-12T04:54:14.650Z,13.77
2023-04-12T04:55:18.544Z,11.18
2023-04-12T04:56:23.323Z,12.45
2023-04-12T04:57:27.716Z,10.93
2023-04-12T04:58:32.158Z,14.18
2023-04-12T04:59:35.277Z,10.55
2023-04-12T05:00:49.115Z,13.80
2023-04-12T05:01:52.997Z,15.05
2023-04-12T05:02:56.125Z,9.45
2023-04-12T05:04:02.954Z,12.30
2023-04-12T05:05:09.078Z,11.75
2023-04-12T05:06:11.943Z,10.50
2023-04-12T05:07:14.835Z,13.00
2023-04-12T05:08:20.727Z,11.73
2023-04-12T05:09:24.975Z,10.55
2023-04-12T05:10:31.910Z,11.27
2023-04-12T05:11:37.981Z,12.57
2023-04-12T05:12:45.481Z,12.95
2023-04-12T05:13:50.343Z,11.00
2023-04-12T05:15:01.245Z,14.02
2023-04-12T05:16:12.130Z,10.02
2023-04-12T05:17:15.539Z,12.45
2023-04-12T05:18:18.330Z,11.00
2023-04-12T05:19:20.984Z,10.50
2023-04-12T05:20:23.767Z,10.02
2023-04-12T05:21:27.269Z,11.57
2023-04-12T05:22:29.793Z,12.48
2023-04-12T05:23:39.649Z,10.75
2023-04-12T05:24:42.454Z,9.30
2023-04-12T05:25:50.118Z,13.85
2023-04-12T05:26:54.163Z,22.63
2023-04-12T05:27:56.625Z,19.40
2023-04-12T05:29:01.647Z,13.63
2023-04-12T05:30:04.744Z,13.85
2023-04-12T05:31:08.572Z,15.98
2023-04-12T05:32:13.940Z,15.18
2023-04-12T05:33:16.368Z,13.02
2023-04-12T05:34:23.839Z,13.02
2023-04-12T05:35:29.235Z,14.75
2023-04-12T05:36:35.352Z,13.23
2023-04-12T05:37:39.466Z,10.57
2023-04-12T05:38:43.470Z,9.43
2023-04-12T05:39:48.260Z,12.02
2023-04-12T05:40:54.220Z,10.65
2023-04-12T05:41:59.133Z,11.32
2023-04-12T05:43:03.578Z,10.10
2023-04-12T05:44:07.510Z,13.75
2023-04-12T05:45:11.752Z,10.70
2023-04-12T05:46:14.606Z,14.25
2023-04-12T05:47:19.736Z,12.43
2023-04-12T05:48:23.334Z,11.30
2023-04-12T05:49:31.266Z,9.20
2023-04-12T05:50:35.957Z,13.07
2023-04-12T05:51:41.480Z,12.65
2023-04-12T05:52:53.537Z,11.77
2023-04-12T05:54:01.666Z,14.57
2023-04-12T05:55:08.474Z,12.05
2023-04-12T05:56:15.286Z,16.42
2023-04-12T05:57:19.478Z,13.95
2023-04-12T05:58:24.694Z,12.40
2023-04-12T05:59:29.634Z,12.10
2023-04-12T06:00:32.493Z,14.02
2023-04-12T06:01:42.713Z,13.25
2023-04-12T06:02:46.371Z,13.20
2023-04-12T06:03:49.488Z,12.63
2023-04-12T06:04:52.903Z,15.68
2023-04-12T06:05:56.170Z,12.68
2023-04-12T06:06:59.991Z,15.95
2023-04-12T06:08:03.030Z,11.60
2023-04-12T06:09:05.595Z,15.38
2023-04-12T06:10:10.058Z,12.95
2023-04-12T06:11:12.830Z,14.07
2023-04-12T06:12:18.030Z,15.45
2023-04-12T06:13:21.061Z,13.82
2023-04-12T06:14:24.154Z,13.15
2023-04-12T06:15:26.772Z,16.25
2023-04-12T06:16:30.317Z,17.05
2023-04-12T06:17:33.141Z,14.27
2023-04-12T06:18:35.656Z,13.98
2023-04-12T06:19:38.173Z,14.63
2023-04-12T06:20:40.789Z,16.30
2023-04-12T06:21:43.628Z,14.63
2023-04-12T06:22:46.177Z,14.70
2023-04-12T06:23:52.094Z,17.92
2023-04-12T06:24:54.578Z,16.77
2023-04-12T06:25:59.284Z,14.55
2023-04-12T06:27:03.090Z,17.42
2023-04-12T06:28:07.513Z,14.75
2023-04-12T06:29:17.816Z,12.70
2023-04-12T06:30:22.448Z,14.60
2023-04-12T06:31:28.068Z,15.55
2023-04-12T06:32:31.996Z,14.60
2023-04-12T06:33:36.765Z,14.98
2023-04-12T06:34:42.995Z,15.38
2023-04-12T06:35:49.792Z,15.18
2023-04-12T06:36:52.746Z,16.08
2023-04-12T06:37:55.443Z,13.80
2023-04-12T06:38:58.206Z,15.95
2023-04-12T06:40:00.917Z,15.40
2023-04-12T06:41:03.537Z,14.85
2023-04-12T06:42:06.150Z,15.20
2023-04-12T06:43:10.522Z,13.65
2023-04-12T06:44:13.409Z,14.45
2023-04-12T06:45:15.952Z,12.90
2023-04-12T06:46:26.776Z,14.82
2023-04-12T06:47:30.230Z,12.35
2023-04-12T06:48:32.720Z,12.60
2023-04-12T06:49:35.295Z,13.35
2023-04-12T06:50:39.248Z,15.68
2023-04-12T06:51:41.745Z,12.93
2023-04-12T06:52:44.307Z,18.98
2023-04-12T06:53:46.925Z,12.40
2023-04-12T06:54:49.535Z,15.25
2023-04-12T06:55:53.895Z,14.15
2023-04-12T06:56:57.601Z,11.93
2023-04-12T06:58:00.594Z,12.30
2023-04-12T06:59:03.651Z,20.55
2023-04-12T07:00:07.040Z,13.75
2023-04-12T07:01:16.061Z,14.75
2023-04-12T07:02:18.865Z,14.90
2023-04-12T07:03:21.714Z,13.27
2023-04-12T07:04:24.467Z,15.20
2023-04-12T07:05:27.023Z,13.65
2023-04-12T07:06:29.559Z,12.40
2023-04-12T07:07:32.233Z,14.65
2023-04-12T07:08:36.092Z,14.88
2023-04-12T07:09:39.843Z,12.88
2023-04-12T07:10:42.381Z,13.52
2023-04-12T07:11:45.015Z,13.60
2023-04-12T07:12:47.471Z,18.55
2023-04-12T07:13:50.290Z,13.38
2023-04-12T07:14:52.700Z,11.50
2023-04-12T07:15:55.411Z,11.95
2023-04-12T07:16:58.063Z,11.73
2023-04-12T07:18:00.658Z,14.13
2023-04-12T07:19:03.408Z,13.70
2023-04-12T07:20:06.213Z,12.00
2023-04-12T07:21:08.784Z,11.77
2023-04-12T07:22:13.475Z,11.93
2023-04-12T07:23:16.968Z,14.25
2023-04-12T07:24:19.460Z,20.17
2023-04-12T07:25:22.114Z,11.25
2023-04-12T07:26:24.621Z,10.63
2023-04-12T07:27:27.090Z,15.20
2023-04-12T07:28:29.593Z,15.82
2023-04-12T07:29:32.160Z,12.88
2023-04-12T07:30:34.649Z,14.38
2023-04-12T07:31:37.670Z,14.20
2023-04-12T07:32:40.384Z,12.55
2023-04-12T07:33:43.272Z,11.77
2023-04-12T07:34:46.487Z,13.80
2023-04-12T07:35:49.038Z,11.02
2023-04-12T07:36:51.756Z,12.98
2023-04-12T07:37:54.486Z,13.18
2023-04-12T07:38:57.198Z,12.82
2023-04-12T07:40:00.133Z,12.68
2023-04-12T07:41:02.907Z,12.13
2023-04-12T07:42:05.831Z,14.88
2023-04-12T07:43:08.378Z,12.95
2023-04-12T07:44:10.740Z,12.18
2023-04-12T07:45:13.338Z,14.60
2023-04-12T07:46:15.938Z,15.02
2023-04-12T07:47:18.503Z,14.93
2023-04-12T07:48:21.262Z,15.65
2023-04-12T07:49:23.918Z,14.60
2023-04-12T07:50:26.335Z,14.23
2023-04-12T07:51:28.790Z,11.02
2023-04-12T07:52:32.937Z,12.15
2023-04-12T07:53:35.524Z,13.55
2023-04-12T07:54:37.981Z,12.85
2023-04-12T07:55:40.582Z,13.70
2023-04-12T07:57:04.015Z,15.65
2023-04-12T07:58:06.539Z,13.00
2023-04-12T07:59:09.041Z,12.00
2023-04-12T08:00:11.994Z,19.42
2023-04-12T08:01:17.316Z,12.80
2023-04-12T08:02:24.969Z,13.88
2023-04-12T08:03:28.214Z,10.43
2023-04-12T08:04:30.963Z,15.00
2023-04-12T08:05:33.959Z,10.68
2023-04-12T08:06:37.576Z,12.90
2023-04-12T08:07:40.002Z,11.15
2023-04-12T08:08:42.516Z,12.75
2023-04-12T08:09:45.228Z,13.25
2023-04-12T08:10:47.953Z,12.73
2023-04-12T08:11:50.617Z,13.15
2023-04-12T08:12:53.128Z,12.45
2023-04-12T08:13:55.745Z,10.68
2023-04-12T08:14:58.535Z,11.32
2023-04-12T08:16:01.178Z,19.67
2023-04-12T08:17:03.861Z,12.40
2023-04-12T08:18:06.357Z,12.75
2023-04-12T08:19:09.018Z,13.70
2023-04-12T08:20:11.783Z,12.45
2023-04-12T08:21:14.249Z,11.70
2023-04-12T08:22:16.700Z,10.82
2023-04-12T08:23:19.289Z,10.93
2023-04-12T08:24:21.839Z,12.68
2023-04-12T08:25:24.752Z,14.10
2023-04-12T08:26:27.369Z,10.43
2023-04-12T08:27:30.359Z,10.98
2023-04-12T08:28:33.576Z,11.52
2023-04-12T08:29:36.157Z,12.00
2023-04-12T08:30:38.711Z,10.65
2023-04-12T08:31:41.475Z,11.27
2023-04-12T08:32:44.148Z,13.13
2023-04-12T08:33:46.810Z,10.95
2023-04-12T08:34:49.261Z,14.63
2023-04-12T08:35:52.986Z,12.68
2023-04-12T08:36:55.815Z,12.52
2023-04-12T08:37:58.366Z,16.35
2023-04-12T08:39:01.455Z,15.40
2023-04-12T08:40:08.217Z,12.02
2023-04-12T08:41:10.650Z,13.35
2023-04-12T08:42:15.209Z,18.67
2023-04-12T08:43:19.215Z,12.35
2023-04-12T08:44:37.945Z,11.88
2023-04-12T08:45:40.870Z,13.18
2023-04-12T08:46:43.823Z,17.83
2023-04-12T08:47:46.877Z,12.13
2023-04-12T08:48:54.136Z,12.18
2023-04-12T08:49:57.342Z,12.50
2023-04-12T08:51:01.041Z,14.70
2023-04-12T08:52:05.922Z,16.00
2023-04-12T08:53:10.979Z,11.77
2023-04-12T08:54:13.552Z,12.43
2023-04-12T08:55:16.157Z,13.00
2023-04-12T08:56:19.167Z,11.77
2023-04-12T08:57:22.131Z,13.43
2023-04-12T08:58:25.039Z,15.80
2023-04-12T08:59:28.271Z,14.27
2023-04-12T09:00:31.217Z,14.15
2023-04-12T09:01:33.946Z,12.55
2023-04-12T09:02:43.347Z,12.30
2023-04-12T09:03:46.962Z,14.20
2023-04-12T09:04:50.789Z,12.65
2023-04-12T09:05:53.538Z,11.95
2023-04-12T09:06:56.527Z,15.80
2023-04-12T09:07:59.186Z,13.38
2023-04-12T09:09:08.105Z,12.35
2023-04-12T09:10:11.082Z,13.43
2023-04-12T09:11:24.628Z,12.50
2023-04-12T09:12:27.615Z,12.40
2023-04-12T09:13:34.749Z,13.80
2023-04-12T09:14:38.615Z,13.15
2023-04-12T09:15:50.955Z,12.70
2023-04-12T09:16:53.429Z,12.20
2023-04-12T09:18:15.860Z,10.57
2023-04-12T09:19:33.452Z,12.85
2023-04-12T09:20:39.141Z,14.23
2023-04-12T09:21:56.249Z,12.30
2023-04-12T09:22:59.174Z,11.35
2023-04-12T09:24:14.920Z,10.45
2023-04-12T09:25:17.658Z,12.23
2023-04-12T09:26:29.809Z,12.23
2023-04-12T09:27:48.194Z,12.85
2023-04-12T09:28:51.020Z,16.05
2023-04-12T09:30:07.246Z,14.70
2023-04-12T09:31:17.568Z,11.95
2023-04-12T09:32:27.623Z,11.15
2023-04-12T09:33:33.233Z,9.10
2023-04-12T09:34:36.663Z,11.02
2023-04-12T09:35:39.730Z,15.55
2023-04-12T09:36:43.098Z,10.57
2023-04-12T09:37:45.804Z,17.25
2023-04-12T09:39:05.262Z,12.98
2023-04-12T09:40:09.578Z,13.55
2023-04-12T09:41:22.572Z,13.20
2023-04-12T09:42:33.931Z,10.75
2023-04-12T09:43:40.248Z,14.93
2023-04-12T09:44:42.840Z,11.65
2023-04-12T09:45:45.445Z,9.95
2023-04-12T09:46:52.201Z,10.43
2023-04-12T09:47:55.851Z,13.05
2023-04-12T09:48:59.447Z,15.38
2023-04-12T09:50:04.628Z,12.20
2023-04-12T09:51:08.215Z,11.73
2023-04-12T09:52:12.336Z,11.40
2023-04-12T09:53:18.642Z,10.13
2023-04-12T09:54:21.689Z,10.52
2023-04-12T09:55:25.895Z,12.65
2023-04-12T09:56:33.856Z,10.18
2023-04-12T09:57:39.863Z,12.88
2023-04-12T09:58:43.467Z,10.07
2023-04-12T09:59:46.567Z,14.18
2023-04-12T10:00:49.434Z,13.93
2023-04-12T10:01:52.653Z,11.40
2023-04-12T10:02:56.633Z,11.13
2023-04-12T10:04:00.741Z,17.77
2023-04-12T10:05:03.966Z,12.45
2023-04-12T10:06:07.158Z,11.75
2023-04-12T10:07:09.904Z,14.60
2023-04-12T10:08:13.434Z,13.93
2023-04-12T10:09:15.966Z,12.43
2023-04-12T10:10:19.816Z,12.80
2023-04-12T10:11:22.311Z,12.93
2023-04-12T10:12:25.040Z,14.20
2023-04-12T10:13:28.886Z,15.27
2023-04-12T10:14:32.158Z,10.63
2023-04-12T10:15:35.363Z,14.73
2023-04-12T10:16:42.142Z,11.52
2023-04-12T10:17:47.091Z,11.80
2023-04-12T10:18:52.579Z,12.00
2023-04-12T10:19:55.199Z,15.00
2023-04-12T10:20:58.772Z,10.85
2023-04-12T10:22:02.107Z,11.75
2023-04-12T10:23:06.718Z,10.25
2023-04-12T10:24:09.871Z,8.63
2023-04-12T10:25:14.016Z,9.52
2023-04-12T10:26:17.412Z,9.45
2023-04-12T10:27:27.232Z,11.65
2023-04-12T10:28:29.910Z,13.15
2023-04-12T10:29:34.687Z,17.92
2023-04-12T10:30:38.150Z,10.13
2023-04-12T10:31:42.343Z,8.55
2023-04-12T10:32:44.934Z,9.50
2023-04-12T10:33:47.987Z,11.13
2023-04-12T10:34:54.892Z,11.52
2023-04-12T10:36:06.938Z,9.10
2023-04-12T10:37:09.794Z,9.32
2023-04-12T10:38:12.392Z,9.23
2023-04-12T10:39:15.308Z,10.30
2023-04-12T10:40:19.301Z,10.05
2023-04-12T10:41:22.500Z,11.20
2023-04-12T10:42:29.326Z,10.27
2023-04-12T10:43:34.888Z,9.82
2023-04-12T10:44:37.520Z,11.23
2023-04-12T10:45:40.425Z,10.15
2023-04-12T10:46:45.862Z,9.05
2023-04-12T10:47:48.633Z,10.45
2023-04-12T10:48:52.594Z,10.43
2023-04-12T10:50:25.903Z,9.98
2023-04-12T10:51:33.681Z,8.07
2023-04-12T10:53:12.862Z,10.27
2023-04-12T10:54:31.183Z,9.63
2023-04-12T10:55:33.861Z,8.88
2023-04-12T10:56:38.684Z,13.65
2023-04-12T10:57:47.283Z,10.68
2023-04-12T10:58:49.963Z,11.60
2023-04-12T10:59:57.446Z,9.68
2023-04-12T11:01:00.147Z,9.07
2023-04-12T11:02:11.867Z,8.18
2023-04-12T11:03:18.137Z,6.85
2023-04-12T11:04:22.053Z,8.25
2023-04-12T11:06:12.753Z,9.13
2023-04-12T11:07:42.333Z,8.98
2023-04-12T11:09:03.183Z,8.73
2023-04-12T11:10:14.943Z,10.95
2023-04-12T11:11:22.843Z,10.73
2023-04-12T11:12:29.217Z,7.25
2023-04-12T11:13:39.227Z,9.15
2023-04-12T11:14:50.502Z,8.45
2023-04-12T11:15:57.728Z,9.88
2023-04-12T11:17:06.641Z,6.63
2023-04-12T11:18:09.447Z,8.27
2023-04-12T11:19:12.108Z,7.65
2023-04-12T11:20:14.890Z,9.30
2023-04-12T11:21:17.743Z,9.52
2023-04-12T11:22:22.370Z,13.48
2023-04-12T11:23:25.140Z,10.10
2023-04-12T11:24:28.432Z,12.88
2023-04-12T11:25:31.164Z,9.05
2023-04-12T11:26:33.711Z,8.13
2023-04-12T11:27:38.129Z,8.40
2023-04-12T11:28:40.925Z,9.40
2023-04-12T11:29:44.287Z,6.72
2023-04-12T11:30:56.683Z,11.50
2023-04-12T11:31:59.660Z,9.70
2023-04-12T11:33:02.315Z,8.30
2023-04-12T11:34:05.040Z,8.27
2023-04-12T11:35:08.729Z,7.35
2023-04-12T11:36:13.311Z,8.88
2023-04-12T11:37:17.133Z,9.27
2023-04-12T11:38:20.152Z,7.82
2023-04-12T11:39:22.854Z,8.55
2023-04-12T11:40:25.416Z,8.80
2023-04-12T11:41:28.103Z,9.23
2023-04-12T11:42:31.173Z,14.73
2023-04-12T11:43:35.983Z,12.20
2023-04-12T11:44:55.994Z,11.90
2023-04-12T11:46:01.208Z,9.38
2023-04-12T11:47:04.728Z,8.70
2023-04-12T11:48:09.989Z,8.30
2023-04-12T11:49:17.250Z,7.00
2023-04-12T11:50:32.387Z,9.48
2023-04-12T11:51:35.855Z,7.20
2023-04-12T11:52:38.423Z,6.60
2023-04-12T11:53:41.084Z,7.65
2023-04-12T11:54:48.938Z,8.68
2023-04-12T11:55:52.480Z,8.15
2023-04-12T11:56:57.467Z,7.55
2023-04-12T11:58:00.394Z,10.68
2023-04-12T11:59:06.099Z,7.05
2023-04-12T12:00:09.113Z,8.40
2023-04-12T12:01:21.912Z,7.55
2023-04-12T12:02:25.417Z,6.82
2023-04-12T12:03:29.287Z,6.65
2023-04-12T12:04:32.555Z,10.95
2023-04-12T12:05:39.589Z,9.73
2023-04-12T12:06:42.881Z,8.57
2023-04-12T12:07:46.036Z,7.57
2023-04-12T12:08:50.859Z,10.57
2023-04-12T12:09:54.061Z,11.10
2023-04-12T12:11:07.132Z,8.98
2023-04-12T12:12:11.367Z,11.45
2023-04-12T12:13:14.560Z,6.30
2023-04-12T12:14:20.965Z,8.15
2023-04-12T12:15:23.535Z,8.90
2023-04-12T12:16:28.574Z,7.90
2023-04-12T12:17:37.971Z,8.63
2023-04-12T12:18:41.488Z,7.85
2023-04-12T12:19:45.728Z,7.63
2023-04-12T12:20:50.259Z,8.38
2023-04-12T12:21:53.030Z,8.63
2023-04-12T12:22:55.630Z,8.88
2023-04-12T12:23:58.774Z,10.07
2023-04-12T12:25:01.870Z,8.32
2023-04-12T12:26:18.329Z,6.47
2023-04-12T12:27:47.651Z,7.22
2023-04-12T12:28:55.802Z,8.35
2023-04-12T12:30:01.603Z,8.25
2023-04-12T12:31:10.610Z,7.10
2023-04-12T12:32:16.358Z,9.55
2023-04-12T12:33:29.100Z,10.43
2023-04-12T12:34:42.055Z,6.75
2023-04-12T12:35:45.714Z,9.20
2023-04-12T12:36:56.134Z,6.65
2023-04-12T12:37:59.082Z,7.20
2023-04-12T12:39:07.709Z,7.80
2023-04-12T12:40:13.850Z,8.05
2023-04-12T12:41:24.326Z,7.90
2023-04-12T12:42:27.580Z,9.30
2023-04-12T12:43:30.659Z,6.30
2023-04-12T12:44:37.089Z,7.50
2023-04-12T12:45:40.823Z,6.25
2023-04-12T12:46:55.150Z,7.28
2023-04-12T12:48:00.070Z,9.63
2023-04-12T12:49:02.893Z,8.02
2023-04-12T12:50:06.670Z,7.18
2023-04-12T12:51:10.139Z,8.02
2023-04-12T12:52:12.584Z,6.80
2023-04-12T12:53:15.070Z,6.75
2023-04-12T12:54:28.462Z,8.77
2023-04-12T12:55:40.459Z,9.70
2023-04-12T12:56:43.378Z,8.38
2023-04-12T12:57:58.379Z,6.38
2023-04-12T12:59:08.948Z,7.47
2023-04-12T13:00:13.257Z,8.13
2023-04-12T13:01:16.115Z,6.53
2023-04-12T13:02:19.918Z,5.97
2023-04-12T13:03:23.110Z,8.48
2023-04-12T13:04:26.826Z,9.55
2023-04-12T13:05:29.800Z,8.82
2023-04-12T13:06:32.957Z,6.95
2023-04-12T13:07:36.006Z,7.70
2023-04-12T13:08:38.508Z,7.40
2023-04-12T13:09:41.058Z,7.88
2023-04-12T13:10:43.635Z,5.97
2023-04-12T13:11:46.430Z,5.75
2023-04-12T13:12:49.109Z,7.05
2023-04-12T13:13:51.650Z,6.38
2023-04-12T13:15:00.305Z,6.15
2023-04-12T13:16:16.185Z,6.18
2023-04-12T13:17:18.863Z,6.47
2023-04-12T13:18:21.602Z,5.80
2023-04-12T13:19:24.147Z,6.85
2023-04-12T13:20:27.877Z,5.43
2023-04-12T13:21:30.441Z,7.65
2023-04-12T13:22:33.435Z,6.38
2023-04-12T13:23:36.231Z,18.38
2023-04-12T13:24:38.798Z,8.75
2023-04-12T13:25:41.635Z,7.50
2023-04-12T13:26:44.365Z,10.32
2023-04-12T13:27:48.775Z,7.90
2023-04-12T13:28:51.783Z,6.22
2023-04-12T13:29:55.250Z,8.05
2023-04-12T13:30:58.110Z,5.95
2023-04-12T13:32:01.061Z,9.55
2023-04-12T13:33:04.099Z,8.57
2023-04-12T13:34:06.736Z,6.30
2023-04-12T13:35:09.498Z,7.38
2023-04-12T13:36:12.255Z,6.70
2023-04-12T13:37:14.846Z,6.47
2023-04-12T13:38:17.303Z,8.38
2023-04-12T13:39:19.793Z,10.23
2023-04-12T13:40:22.633Z,5.93
2023-04-12T13:41:25.803Z,9.20
2023-04-12T13:42:28.503Z,7.40
2023-04-12T13:43:31.011Z,7.57
2023-04-12T13:44:34.078Z,6.65
2023-04-12T13:45:36.820Z,7.03
2023-04-12T13:46:39.806Z,8.60
2023-04-12T13:47:42.734Z,6.47
2023-04-12T13:48:45.398Z,7.43
2023-04-12T13:49:48.045Z,8.30
2023-04-12T13:50:51.904Z,7.47
2023-04-12T13:51:56.813Z,7.25
2023-04-12T13:52:59.560Z,6.05
2023-04-12T13:54:03.012Z,7.40
2023-04-12T13:55:08.504Z,7.03
2023-04-12T13:56:12.189Z,7.03
2023-04-12T13:57:14.729Z,7.03
2023-04-12T13:58:18.956Z,8.40
2023-04-12T13:59:21.695Z,7.63
2023-04-12T14:00:24.817Z,8.82
2023-04-12T14:01:27.505Z,10.65
2023-04-12T14:02:31.517Z,6.50
2023-04-12T14:03:34.683Z,6.30
2023-04-12T14:04:37.136Z,8.65
2023-04-12T14:05:39.820Z,6.88
2023-04-12T14:06:42.885Z,8.77
2023-04-12T14:07:46.378Z,7.10
2023-04-12T14:08:48.926Z,10.40
2023-04-12T14:09:51.470Z,9.98